sensor_id;sensor_type;location;lat;lon;timestamp;temperature;humidity
47576;DHT22;33304;52.456;13.328;2024-02-28T00:02:14;5.50;99.90
47576;DHT22;33304;52.456;13.328;2024-02-28T00:04:41;5.50;99.90
47576;DHT22;33304;52.456;13.328;2024-02-28T00:07:08;5.60;99.90
47576;DHT22;33304;52.456;13.328;2024-02-28T00:09:35;5.70;99.90
47576;DHT22;33304;52.456;13.328;2024-02-28T00:12:03;5.70;99.90
47576;DHT22;33304;52.456;13.328;2024-02-28T00:14:30;5.60;99.90
47576;DHT22;33304;52.456;13.328;2024-02-28T00:16:58;5.60;99.90
47576;DHT22;33304;52.456;13.328;2024-02-28T00:19:25;5.60;99.90
47576;DHT22;33304;52.456;13.328;2024-02-28T00:21:52;5.60;99.90
47576;DHT22;33304;52.456;13.328;2024-02-28T00:24:19;5.60;99.90
47576;DHT22;33304;52.456;13.328;2024-02-28T00:26:46;5.60;99.90
47576;DHT22;33304;52.456;13.328;2024-02-28T00:29:13;5.50;99.90
47576;DHT22;33304;52.456;13.328;2024-02-28T00:31:41;5.60;99.90
47576;DHT22;33304;52.456;13.328;2024-02-28T00:34:09;5.70;99.90
47576;DHT22;33304;52.456;13.328;2024-02-28T00:36:36;5.60;99.90
47576;DHT22;33304;52.456;13.328;2024-02-28T00:39:03;5.60;99.90
47576;DHT22;33304;52.456;13.328;2024-02-28T00:41:30;5.50;99.90
47576;DHT22;33304;52.456;13.328;2024-02-28T00:43:58;5.50;99.90
47576;DHT22;33304;52.456;13.328;2024-02-28T00:46:25;5.50;99.90
47576;DHT22;33304;52.456;13.328;2024-02-28T00:48:52;5.50;99.90
47576;DHT22;33304;52.456;13.328;2024-02-28T00:51:20;5.50;99.90
47576;DHT22;33304;52.456;13.328;2024-02-28T00:53:47;5.40;99.90
47576;DHT22;33304;52.456;13.328;2024-02-28T00:56:14;5.30;99.90
47576;DHT22;33304;52.456;13.328;2024-02-28T00:58:43;5.30;99.90
47576;DHT22;33304;52.456;13.328;2024-02-28T01:01:10;5.40;99.90
47576;DHT22;33304;52.456;13.328;2024-02-28T01:03:37;5.40;99.90
47576;DHT22;33304;52.456;13.328;2024-02-28T01:06:04;5.50;99.90
47576;DHT22;33304;52.456;13.328;2024-02-28T01:08:33;5.30;99.90
47576;DHT22;33304;52.456;13.328;2024-02-28T01:11:00;5.40;99.90
47576;DHT22;33304;52.456;13.328;2024-02-28T01:13:27;5.40;99.90
47576;DHT22;33304;52.456;13.328;2024-02-28T01:15:54;5.40;99.90
47576;DHT22;33304;52.456;13.328;2024-02-28T01:18:21;5.40;99.90
47576;DHT22;33304;52.456;13.328;2024-02-28T01:20:48;5.40;99.90
47576;DHT22;33304;52.456;13.328;2024-02-28T01:23:16;5.30;99.90
47576;DHT22;33304;52.456;13.328;2024-02-28T01:25:44;5.30;99.90
47576;DHT22;33304;52.456;13.328;2024-02-28T01:28:12;5.30;99.90
47576;DHT22;33304;52.456;13.328;2024-02-28T01:30:39;5.40;99.90
47576;DHT22;33304;52.456;13.328;2024-02-28T01:33:06;5.40;99.90
47576;DHT22;33304;52.456;13.328;2024-02-28T01:35:33;5.40;99.90
47576;DHT22;33304;52.456;13.328;2024-02-28T01:38:00;5.50;99.90
47576;DHT22;33304;52.456;13.328;2024-02-28T01:40:27;5.40;99.90
47576;DHT22;33304;52.456;13.328;2024-02-28T01:43:01;5.40;99.90
47576;DHT22;33304;52.456;13.328;2024-02-28T01:45:28;5.40;99.90
47576;DHT22;33304;52.456;13.328;2024-02-28T01:47:55;5.50;99.90
47576;DHT22;33304;52.456;13.328;2024-02-28T01:50:22;5.60;99.90
47576;DHT22;33304;52.456;13.328;2024-02-28T01:52:50;5.50;99.90
47576;DHT22;33304;52.456;13.328;2024-02-28T01:55:17;5.50;99.90
47576;DHT22;33304;52.456;13.328;2024-02-28T01:57:44;5.50;99.90
47576;DHT22;33304;52.456;13.328;2024-02-28T02:00:13;5.50;99.90
47576;DHT22;33304;52.456;13.328;2024-02-28T02:02:42;5.50;99.90
47576;DHT22;33304;52.456;13.328;2024-02-28T02:05:10;5.40;99.90
47576;DHT22;33304;52.456;13.328;2024-02-28T02:07:37;5.40;99.90
47576;DHT22;33304;52.456;13.328;2024-02-28T02:10:05;5.40;99.90
47576;DHT22;33304;52.456;13.328;2024-02-28T02:12:34;5.50;99.90
47576;DHT22;33304;52.456;13.328;2024-02-28T02:15:02;5.30;99.90
47576;DHT22;33304;52.456;13.328;2024-02-28T02:17:31;5.40;99.90
47576;DHT22;33304;52.456;13.328;2024-02-28T02:19:58;5.40;99.90
47576;DHT22;33304;52.456;13.328;2024-02-28T02:22:27;5.40;99.90
47576;DHT22;33304;52.456;13.328;2024-02-28T02:24:57;5.50;99.90
47576;DHT22;33304;52.456;13.328;2024-02-28T02:27:24;5.30;99.90
47576;DHT22;33304;52.456;13.328;2024-02-28T02:29:51;5.40;99.90
47576;DHT22;33304;52.456;13.328;2024-02-28T02:32:19;5.40;99.90
47576;DHT22;33304;52.456;13.328;2024-02-28T02:34:46;5.40;99.90
47576;DHT22;33304;52.456;13.328;2024-02-28T02:37:13;5.40;99.90
47576;DHT22;33304;52.456;13.328;2024-02-28T02:39:40;5.50;99.90
47576;DHT22;33304;52.456;13.328;2024-02-28T02:42:08;5.50;99.90
47576;DHT22;33304;52.456;13.328;2024-02-28T02:44:35;5.50;99.90
47576;DHT22;33304;52.456;13.328;2024-02-28T02:47:03;5.40;99.90
47576;DHT22;33304;52.456;13.328;2024-02-28T02:49:30;5.50;99.90
47576;DHT22;33304;52.456;13.328;2024-02-28T02:51:57;5.40;99.90
47576;DHT22;33304;52.456;13.328;2024-02-28T02:54:24;5.40;99.90
47576;DHT22;33304;52.456;13.328;2024-02-28T02:56:51;5.40;99.90
47576;DHT22;33304;52.456;13.328;2024-02-28T02:59:19;5.40;99.90
47576;DHT22;33304;52.456;13.328;2024-02-28T03:01:49;5.30;99.90
47576;DHT22;33304;52.456;13.328;2024-02-28T03:04:16;5.30;99.90
47576;DHT22;33304;52.456;13.328;2024-02-28T03:06:43;5.30;99.90
47576;DHT22;33304;52.456;13.328;2024-02-28T03:09:10;5.30;99.90
47576;DHT22;33304;52.456;13.328;2024-02-28T03:11:37;5.20;99.90
47576;DHT22;33304;52.456;13.328;2024-02-28T03:14:04;5.20;99.90
47576;DHT22;33304;52.456;13.328;2024-02-28T03:16:33;5.30;99.90
47576;DHT22;33304;52.456;13.328;2024-02-28T03:19:03;5.30;99.90
47576;DHT22;33304;52.456;13.328;2024-02-28T03:21:31;5.40;99.90
47576;DHT22;33304;52.456;13.328;2024-02-28T03:23:58;5.30;99.90
47576;DHT22;33304;52.456;13.328;2024-02-28T03:26:25;5.20;99.90
47576;DHT22;33304;52.456;13.328;2024-02-28T03:28:52;5.30;99.90
47576;DHT22;33304;52.456;13.328;2024-02-28T03:31:19;5.30;99.90
47576;DHT22;33304;52.456;13.328;2024-02-28T03:33:47;5.30;99.90
47576;DHT22;33304;52.456;13.328;2024-02-28T03:36:14;5.40;99.90
47576;DHT22;33304;52.456;13.328;2024-02-28T03:38:41;5.30;99.90
47576;DHT22;33304;52.456;13.328;2024-02-28T03:41:09;5.30;99.90
47576;DHT22;33304;52.456;13.328;2024-02-28T03:43:36;5.30;99.90
47576;DHT22;33304;52.456;13.328;2024-02-28T03:46:03;5.30;99.90
47576;DHT22;33304;52.456;13.328;2024-02-28T03:48:30;5.20;99.90
47576;DHT22;33304;52.456;13.328;2024-02-28T03:50:58;5.20;99.90
47576;DHT22;33304;52.456;13.328;2024-02-28T03:53:26;5.20;99.90
47576;DHT22;33304;52.456;13.328;2024-02-28T03:55:53;5.10;99.90
47576;DHT22;33304;52.456;13.328;2024-02-28T03:58:20;5.20;99.90
47576;DHT22;33304;52.456;13.328;2024-02-28T04:00:47;5.20;99.90
47576;DHT22;33304;52.456;13.328;2024-02-28T04:03:14;5.20;99.90
47576;DHT22;33304;52.456;13.328;2024-02-28T04:05:41;5.20;99.90
47576;DHT22;33304;52.456;13.328;2024-02-28T04:08:09;5.30;99.90
47576;DHT22;33304;52.456;13.328;2024-02-28T04:10:37;5.30;99.90
47576;DHT22;33304;52.456;13.328;2024-02-28T04:13:04;5.20;99.90
47576;DHT22;33304;52.456;13.328;2024-02-28T04:15:32;5.30;99.90
47576;DHT22;33304;52.456;13.328;2024-02-28T04:17:59;5.30;99.90
47576;DHT22;33304;52.456;13.328;2024-02-28T04:20:26;5.40;99.90
47576;DHT22;33304;52.456;13.328;2024-02-28T04:22:53;5.30;99.90
47576;DHT22;33304;52.456;13.328;2024-02-28T04:25:22;5.30;99.90
47576;DHT22;33304;52.456;13.328;2024-02-28T04:27:49;5.30;99.90
47576;DHT22;33304;52.456;13.328;2024-02-28T04:30:16;5.30;99.90
47576;DHT22;33304;52.456;13.328;2024-02-28T04:32:43;5.20;99.90
47576;DHT22;33304;52.456;13.328;2024-02-28T04:35:10;5.20;99.90
47576;DHT22;33304;52.456;13.328;2024-02-28T04:37:37;5.10;99.90
47576;DHT22;33304;52.456;13.328;2024-02-28T04:40:05;5.20;99.90
47576;DHT22;33304;52.456;13.328;2024-02-28T04:42:33;5.20;99.90
47576;DHT22;33304;52.456;13.328;2024-02-28T04:45:00;5.00;99.90
47576;DHT22;33304;52.456;13.328;2024-02-28T04:47:28;4.90;99.90
47576;DHT22;33304;52.456;13.328;2024-02-28T04:49:55;5.00;99.90
47576;DHT22;33304;52.456;13.328;2024-02-28T04:52:22;5.00;99.90
47576;DHT22;33304;52.456;13.328;2024-02-28T04:54:50;5.00;99.90
47576;DHT22;33304;52.456;13.328;2024-02-28T04:57:19;5.10;99.90
47576;DHT22;33304;52.456;13.328;2024-02-28T04:59:48;5.10;99.90
47576;DHT22;33304;52.456;13.328;2024-02-28T05:02:15;5.00;99.90
47576;DHT22;33304;52.456;13.328;2024-02-28T05:04:42;4.80;99.90
47576;DHT22;33304;52.456;13.328;2024-02-28T05:07:09;4.80;99.90
47576;DHT22;33304;52.456;13.328;2024-02-28T05:09:36;4.70;99.90
47576;DHT22;33304;52.456;13.328;2024-02-28T05:12:03;4.60;99.90
47576;DHT22;33304;52.456;13.328;2024-02-28T05:14:31;4.60;99.90
47576;DHT22;33304;52.456;13.328;2024-02-28T05:16:59;4.70;99.90
47576;DHT22;33304;52.456;13.328;2024-02-28T05:19:26;4.60;99.90
47576;DHT22;33304;52.456;13.328;2024-02-28T05:21:53;4.60;99.90
47576;DHT22;33304;52.456;13.328;2024-02-28T05:24:20;4.50;99.90
47576;DHT22;33304;52.456;13.328;2024-02-28T05:26:47;4.50;99.90
47576;DHT22;33304;52.456;13.328;2024-02-28T05:29:14;4.50;99.90
47576;DHT22;33304;52.456;13.328;2024-02-28T05:31:41;4.50;99.90
47576;DHT22;33304;52.456;13.328;2024-02-28T05:34:09;4.60;99.90
47576;DHT22;33304;52.456;13.328;2024-02-28T05:36:37;4.70;99.90
47576;DHT22;33304;52.456;13.328;2024-02-28T05:39:04;4.80;99.90
47576;DHT22;33304;52.456;13.328;2024-02-28T05:41:31;4.70;99.90
47576;DHT22;33304;52.456;13.328;2024-02-28T05:43:58;4.80;99.90
47576;DHT22;33304;52.456;13.328;2024-02-28T05:46:25;4.80;99.90
47576;DHT22;33304;52.456;13.328;2024-02-28T05:48:53;4.50;99.90
47576;DHT22;33304;52.456;13.328;2024-02-28T05:51:21;4.40;99.90
47576;DHT22;33304;52.456;13.328;2024-02-28T05:53:48;4.40;99.90
47576;DHT22;33304;52.456;13.328;2024-02-28T05:56:15;4.50;99.90
47576;DHT22;33304;52.456;13.328;2024-02-28T05:58:46;4.60;99.90
47576;DHT22;33304;52.456;13.328;2024-02-28T06:01:15;4.50;99.90
47576;DHT22;33304;52.456;13.328;2024-02-28T06:03:44;4.50;99.90
47576;DHT22;33304;52.456;13.328;2024-02-28T06:06:11;4.60;99.90
47576;DHT22;33304;52.456;13.328;2024-02-28T06:08:40;4.50;99.90
47576;DHT22;33304;52.456;13.328;2024-02-28T06:11:07;4.40;99.90
47576;DHT22;33304;52.456;13.328;2024-02-28T06:13:35;4.40;99.90
47576;DHT22;33304;52.456;13.328;2024-02-28T06:16:03;4.40;99.90
47576;DHT22;33304;52.456;13.328;2024-02-28T06:18:30;4.30;99.90
47576;DHT22;33304;52.456;13.328;2024-02-28T06:20:59;4.20;99.90
47576;DHT22;33304;52.456;13.328;2024-02-28T06:23:27;4.30;99.90
47576;DHT22;33304;52.456;13.328;2024-02-28T06:25:55;4.30;99.90
47576;DHT22;33304;52.456;13.328;2024-02-28T06:28:22;4.10;99.90
47576;DHT22;33304;52.456;13.328;2024-02-28T06:30:49;4.30;99.90
47576;DHT22;33304;52.456;13.328;2024-02-28T06:33:16;4.40;99.90
47576;DHT22;33304;52.456;13.328;2024-02-28T06:35:44;4.30;99.90
47576;DHT22;33304;52.456;13.328;2024-02-28T06:38:11;4.50;99.90
47576;DHT22;33304;52.456;13.328;2024-02-28T06:40:38;4.60;99.90
47576;DHT22;33304;52.456;13.328;2024-02-28T06:43:07;4.60;99.90
47576;DHT22;33304;52.456;13.328;2024-02-28T06:45:34;4.60;99.90
47576;DHT22;33304;52.456;13.328;2024-02-28T06:48:02;4.70;99.90
47576;DHT22;33304;52.456;13.328;2024-02-28T06:50:29;4.70;99.90
47576;DHT22;33304;52.456;13.328;2024-02-28T06:52:56;4.70;99.90
47576;DHT22;33304;52.456;13.328;2024-02-28T06:55:23;4.70;99.90
47576;DHT22;33304;52.456;13.328;2024-02-28T06:57:51;4.60;99.90
47576;DHT22;33304;52.456;13.328;2024-02-28T07:00:19;4.40;99.90
47576;DHT22;33304;52.456;13.328;2024-02-28T07:02:46;4.50;99.90
47576;DHT22;33304;52.456;13.328;2024-02-28T07:05:13;4.40;99.90
47576;DHT22;33304;52.456;13.328;2024-02-28T07:07:41;4.40;99.90
47576;DHT22;33304;52.456;13.328;2024-02-28T07:10:08;4.50;99.90
47576;DHT22;33304;52.456;13.328;2024-02-28T07:12:35;4.30;99.90
47576;DHT22;33304;52.456;13.328;2024-02-28T07:15:03;4.40;99.90
47576;DHT22;33304;52.456;13.328;2024-02-28T07:17:31;4.40;99.90
47576;DHT22;33304;52.456;13.328;2024-02-28T07:19:58;4.50;99.90
47576;DHT22;33304;52.456;13.328;2024-02-28T07:22:25;4.60;99.90
47576;DHT22;33304;52.456;13.328;2024-02-28T07:24:52;4.70;99.90
47576;DHT22;33304;52.456;13.328;2024-02-28T07:27:22;4.70;99.90
47576;DHT22;33304;52.456;13.328;2024-02-28T07:29:49;4.70;98.90
47576;DHT22;33304;52.456;13.328;2024-02-28T07:32:16;4.80;99.70
47576;DHT22;33304;52.456;13.328;2024-02-28T07:34:44;4.70;95.60
47576;DHT22;33304;52.456;13.328;2024-02-28T07:37:11;4.40;92.80
47576;DHT22;33304;52.456;13.328;2024-02-28T07:39:38;4.40;93.70
47576;DHT22;33304;52.456;13.328;2024-02-28T07:42:05;4.40;94.50
47576;DHT22;33304;52.456;13.328;2024-02-28T07:44:33;4.30;95.40
47576;DHT22;33304;52.456;13.328;2024-02-28T07:47:00;4.30;97.60
47576;DHT22;33304;52.456;13.328;2024-02-28T07:49:27;4.40;97.90
47576;DHT22;33304;52.456;13.328;2024-02-28T07:51:55;4.50;98.10
47576;DHT22;33304;52.456;13.328;2024-02-28T07:54:22;4.60;97.70
47576;DHT22;33304;52.456;13.328;2024-02-28T07:56:50;4.70;97.50
47576;DHT22;33304;52.456;13.328;2024-02-28T07:59:18;4.60;94.40
47576;DHT22;33304;52.456;13.328;2024-02-28T08:01:45;4.70;92.70
47576;DHT22;33304;52.456;13.328;2024-02-28T08:04:12;4.60;94.80
47576;DHT22;33304;52.456;13.328;2024-02-28T08:06:40;4.50;94.90
47576;DHT22;33304;52.456;13.328;2024-02-28T08:09:08;4.40;95.50
47576;DHT22;33304;52.456;13.328;2024-02-28T08:11:35;4.50;99.40
47576;DHT22;33304;52.456;13.328;2024-02-28T08:14:02;4.60;96.90
47576;DHT22;33304;52.456;13.328;2024-02-28T08:16:30;4.70;97.80
47576;DHT22;33304;52.456;13.328;2024-02-28T08:18:57;4.70;95.00
47576;DHT22;33304;52.456;13.328;2024-02-28T08:21:24;4.40;95.40
47576;DHT22;33304;52.456;13.328;2024-02-28T08:23:52;4.50;96.60
47576;DHT22;33304;52.456;13.328;2024-02-28T08:26:20;4.40;93.30
47576;DHT22;33304;52.456;13.328;2024-02-28T08:28:47;4.20;94.90
47576;DHT22;33304;52.456;13.328;2024-02-28T08:31:15;4.20;97.20
47576;DHT22;33304;52.456;13.328;2024-02-28T08:33:42;4.40;97.60
47576;DHT22;33304;52.456;13.328;2024-02-28T08:36:09;4.20;93.70
47576;DHT22;33304;52.456;13.328;2024-02-28T08:38:36;4.40;93.10
47576;DHT22;33304;52.456;13.328;2024-02-28T08:41:04;4.20;84.50
47576;DHT22;33304;52.456;13.328;2024-02-28T08:43:37;3.90;91.00
47576;DHT22;33304;52.456;13.328;2024-02-28T08:46:04;4.00;92.00
47576;DHT22;33304;52.456;13.328;2024-02-28T08:48:31;3.90;93.10
47576;DHT22;33304;52.456;13.328;2024-02-28T08:50:58;3.80;93.10
47576;DHT22;33304;52.456;13.328;2024-02-28T08:53:26;3.80;93.10
47576;DHT22;33304;52.456;13.328;2024-02-28T08:55:53;3.90;93.10
47576;DHT22;33304;52.456;13.328;2024-02-28T08:58:20;3.70;90.30
47576;DHT22;33304;52.456;13.328;2024-02-28T09:00:48;3.70;93.00
47576;DHT22;33304;52.456;13.328;2024-02-28T09:03:16;4.00;92.50
47576;DHT22;33304;52.456;13.328;2024-02-28T09:05:43;4.10;91.00
47576;DHT22;33304;52.456;13.328;2024-02-28T09:08:10;4.00;88.80
47576;DHT22;33304;52.456;13.328;2024-02-28T09:10:37;4.00;90.60
47576;DHT22;33304;52.456;13.328;2024-02-28T09:13:05;4.20;87.70
47576;DHT22;33304;52.456;13.328;2024-02-28T09:15:33;4.30;83.90
47576;DHT22;33304;52.456;13.328;2024-02-28T09:18:01;4.20;80.50
47576;DHT22;33304;52.456;13.328;2024-02-28T09:20:28;4.10;82.50
47576;DHT22;33304;52.456;13.328;2024-02-28T09:22:56;4.00;80.80
47576;DHT22;33304;52.456;13.328;2024-02-28T09:25:23;4.10;82.30
47576;DHT22;33304;52.456;13.328;2024-02-28T09:27:50;4.10;85.50
47576;DHT22;33304;52.456;13.328;2024-02-28T09:30:17;3.80;87.00
47576;DHT22;33304;52.456;13.328;2024-02-28T09:32:44;3.90;89.80
47576;DHT22;33304;52.456;13.328;2024-02-28T09:35:14;4.10;91.00
47576;DHT22;33304;52.456;13.328;2024-02-28T09:37:41;4.20;84.30
47576;DHT22;33304;52.456;13.328;2024-02-28T09:40:09;4.30;82.70
47576;DHT22;33304;52.456;13.328;2024-02-28T09:42:37;4.50;77.70
47576;DHT22;33304;52.456;13.328;2024-02-28T09:45:05;4.50;74.20
47576;DHT22;33304;52.456;13.328;2024-02-28T09:47:35;4.50;68.10
47576;DHT22;33304;52.456;13.328;2024-02-28T09:50:03;4.40;67.00
47576;DHT22;33304;52.456;13.328;2024-02-28T09:52:32;4.40;70.50
47576;DHT22;33304;52.456;13.328;2024-02-28T09:54:59;4.30;63.70
47576;DHT22;33304;52.456;13.328;2024-02-28T09:57:26;4.30;65.40
47576;DHT22;33304;52.456;13.328;2024-02-28T09:59:56;4.40;66.80
47576;DHT22;33304;52.456;13.328;2024-02-28T10:02:25;4.50;64.40
47576;DHT22;33304;52.456;13.328;2024-02-28T10:04:53;4.50;58.80
47576;DHT22;33304;52.456;13.328;2024-02-28T10:07:20;4.50;59.10
47576;DHT22;33304;52.456;13.328;2024-02-28T10:09:49;4.60;58.40
47576;DHT22;33304;52.456;13.328;2024-02-28T10:12:16;4.70;56.20
47576;DHT22;33304;52.456;13.328;2024-02-28T10:14:44;4.70;58.80
47576;DHT22;33304;52.456;13.328;2024-02-28T10:17:11;4.90;56.60
47576;DHT22;33304;52.456;13.328;2024-02-28T10:19:38;4.80;53.80
47576;DHT22;33304;52.456;13.328;2024-02-28T10:22:06;4.80;56.80
47576;DHT22;33304;52.456;13.328;2024-02-28T10:24:33;5.00;55.00
47576;DHT22;33304;52.456;13.328;2024-02-28T10:27:02;5.00;53.10
47576;DHT22;33304;52.456;13.328;2024-02-28T10:29:29;4.90;46.90
47576;DHT22;33304;52.456;13.328;2024-02-28T10:31:59;4.70;50.70
47576;DHT22;33304;52.456;13.328;2024-02-28T10:34:26;4.70;52.40
47576;DHT22;33304;52.456;13.328;2024-02-28T10:36:53;4.90;51.00
47576;DHT22;33304;52.456;13.328;2024-02-28T10:39:22;4.90;47.60
47576;DHT22;33304;52.456;13.328;2024-02-28T10:41:50;4.70;50.20
47576;DHT22;33304;52.456;13.328;2024-02-28T10:44:20;4.80;50.40
47576;DHT22;33304;52.456;13.328;2024-02-28T10:46:49;4.90;51.00
47576;DHT22;33304;52.456;13.328;2024-02-28T10:49:17;5.10;47.40
47576;DHT22;33304;52.456;13.328;2024-02-28T10:51:46;5.00;45.60
47576;DHT22;33304;52.456;13.328;2024-02-28T10:54:15;4.90;43.20
47576;DHT22;33304;52.456;13.328;2024-02-28T10:56:43;4.80;45.20
47576;DHT22;33304;52.456;13.328;2024-02-28T10:59:11;5.00;45.60
47576;DHT22;33304;52.456;13.328;2024-02-28T11:01:41;4.90;41.60
47576;DHT22;33304;52.456;13.328;2024-02-28T11:04:10;5.00;42.80
47576;DHT22;33304;52.456;13.328;2024-02-28T11:06:48;5.10;42.60
47576;DHT22;33304;52.456;13.328;2024-02-28T11:09:19;5.20;36.40
47576;DHT22;33304;52.456;13.328;2024-02-28T11:11:48;5.10;35.30
47576;DHT22;33304;52.456;13.328;2024-02-28T11:14:16;5.20;35.30
47576;DHT22;33304;52.456;13.328;2024-02-28T11:16:45;5.30;32.20
47576;DHT22;33304;52.456;13.328;2024-02-28T11:19:19;5.30;33.30
47576;DHT22;33304;52.456;13.328;2024-02-28T11:21:53;5.30;31.60
47576;DHT22;33304;52.456;13.328;2024-02-28T11:24:23;5.40;29.80
47576;DHT22;33304;52.456;13.328;2024-02-28T11:26:51;5.40;29.00
47576;DHT22;33304;52.456;13.328;2024-02-28T11:29:22;5.50;29.10
47576;DHT22;33304;52.456;13.328;2024-02-28T11:31:51;5.50;29.10
47576;DHT22;33304;52.456;13.328;2024-02-28T11:34:19;5.40;26.80
47576;DHT22;33304;52.456;13.328;2024-02-28T11:36:47;5.40;27.40
47576;DHT22;33304;52.456;13.328;2024-02-28T11:39:16;5.40;28.50
47576;DHT22;33304;52.456;13.328;2024-02-28T11:41:43;5.50;29.10
47576;DHT22;33304;52.456;13.328;2024-02-28T11:44:12;5.50;27.40
47576;DHT22;33304;52.456;13.328;2024-02-28T11:46:43;5.60;27.60
47576;DHT22;33304;52.456;13.328;2024-02-28T11:49:13;5.50;24.50
47576;DHT22;33304;52.456;13.328;2024-02-28T11:51:40;5.50;26.00
47576;DHT22;33304;52.456;13.328;2024-02-28T11:54:08;5.30;25.00
47576;DHT22;33304;52.456;13.328;2024-02-28T11:56:36;5.30;26.10
47576;DHT22;33304;52.456;13.328;2024-02-28T11:59:04;5.50;25.30
47576;DHT22;33304;52.456;13.328;2024-02-28T12:01:36;5.30;26.20
47576;DHT22;33304;52.456;13.328;2024-02-28T12:04:03;5.30;27.10
47576;DHT22;33304;52.456;13.328;2024-02-28T12:06:33;5.30;25.10
47576;DHT22;33304;52.456;13.328;2024-02-28T12:09:00;5.10;25.70
47576;DHT22;33304;52.456;13.328;2024-02-28T12:11:29;4.90;26.80
47576;DHT22;33304;52.456;13.328;2024-02-28T12:13:56;5.00;28.40
47576;DHT22;33304;52.456;13.328;2024-02-28T12:16:25;5.20;26.20
47576;DHT22;33304;52.456;13.328;2024-02-28T12:18:53;5.30;26.40
47576;DHT22;33304;52.456;13.328;2024-02-28T12:21:21;5.50;27.50
47576;DHT22;33304;52.456;13.328;2024-02-28T12:23:50;5.60;25.20
47576;DHT22;33304;52.456;13.328;2024-02-28T12:26:17;5.70;25.30
47576;DHT22;33304;52.456;13.328;2024-02-28T12:28:45;5.70;24.60
47576;DHT22;33304;52.456;13.328;2024-02-28T12:31:13;5.60;24.60
47576;DHT22;33304;52.456;13.328;2024-02-28T12:33:40;5.20;22.90
47576;DHT22;33304;52.456;13.328;2024-02-28T12:36:08;4.90;25.30
47576;DHT22;33304;52.456;13.328;2024-02-28T12:38:35;5.10;25.50
47576;DHT22;33304;52.456;13.328;2024-02-28T12:41:03;5.20;25.80
47576;DHT22;33304;52.456;13.328;2024-02-28T12:43:30;5.10;25.30
47576;DHT22;33304;52.456;13.328;2024-02-28T12:45:58;5.00;25.00
47576;DHT22;33304;52.456;13.328;2024-02-28T12:48:26;5.20;26.30
47576;DHT22;33304;52.456;13.328;2024-02-28T12:50:53;5.40;26.00
47576;DHT22;33304;52.456;13.328;2024-02-28T12:53:20;5.60;24.60
47576;DHT22;33304;52.456;13.328;2024-02-28T12:55:47;5.60;24.60
47576;DHT22;33304;52.456;13.328;2024-02-28T12:58:15;5.70;22.10
47576;DHT22;33304;52.456;13.328;2024-02-28T13:00:42;5.70;22.10
47576;DHT22;33304;52.456;13.328;2024-02-28T13:03:09;5.70;22.20
47576;DHT22;33304;52.456;13.328;2024-02-28T13:05:36;5.80;23.20
47576;DHT22;33304;52.456;13.328;2024-02-28T13:08:04;5.60;20.50
47576;DHT22;33304;52.456;13.328;2024-02-28T13:10:31;5.50;20.80
47576;DHT22;33304;52.456;13.328;2024-02-28T13:13:00;5.60;21.50
47576;DHT22;33304;52.456;13.328;2024-02-28T13:15:28;5.60;21.60
47576;DHT22;33304;52.456;13.328;2024-02-28T13:17:55;5.60;20.40
47576;DHT22;33304;52.456;13.328;2024-02-28T13:20:22;5.40;21.00
47576;DHT22;33304;52.456;13.328;2024-02-28T13:22:50;5.10;22.40
47576;DHT22;33304;52.456;13.328;2024-02-28T13:25:17;5.10;23.40
47576;DHT22;33304;52.456;13.328;2024-02-28T13:27:45;5.40;21.60
47576;DHT22;33304;52.456;13.328;2024-02-28T13:30:13;6.10;21.30
47576;DHT22;33304;52.456;13.328;2024-02-28T13:32:42;6.60;17.40
47576;DHT22;33304;52.456;13.328;2024-02-28T13:35:09;7.70;14.10
47576;DHT22;33304;52.456;13.328;2024-02-28T13:37:36;8.40;7.90
47576;DHT22;33304;52.456;13.328;2024-02-28T13:40:07;9.10;3.90
47576;DHT22;33304;52.456;13.328;2024-02-28T13:42:36;7.70;8.30
47576;DHT22;33304;52.456;13.328;2024-02-28T13:45:05;7.70;8.00
47576;DHT22;33304;52.456;13.328;2024-02-28T13:47:33;7.10;8.80
47576;DHT22;33304;52.456;13.328;2024-02-28T13:50:02;6.70;10.80
47576;DHT22;33304;52.456;13.328;2024-02-28T13:52:29;6.60;10.90
47576;DHT22;33304;52.456;13.328;2024-02-28T13:54:56;6.50;10.80
47576;DHT22;33304;52.456;13.328;2024-02-28T13:57:23;6.00;13.40
47576;DHT22;33304;52.456;13.328;2024-02-28T13:59:50;6.60;13.40
47576;DHT22;33304;52.456;13.328;2024-02-28T14:02:20;7.60;8.20
47576;DHT22;33304;52.456;13.328;2024-02-28T14:04:48;7.70;8.00
47576;DHT22;33304;52.456;13.328;2024-02-28T14:07:16;8.70;3.10
47576;DHT22;33304;52.456;13.328;2024-02-28T14:09:43;8.80;2.80
47576;DHT22;33304;52.456;13.328;2024-02-28T14:12:12;9.00;2.40
47576;DHT22;33304;52.456;13.328;2024-02-28T14:14:39;9.10;2.50
47576;DHT22;33304;52.456;13.328;2024-02-28T14:17:06;9.00;2.40
47576;DHT22;33304;52.456;13.328;2024-02-28T14:19:33;9.60;2.80
47576;DHT22;33304;52.456;13.328;2024-02-28T14:22:03;9.90;1.00
47576;DHT22;33304;52.456;13.328;2024-02-28T14:24:31;9.70;1.00
47576;DHT22;33304;52.456;13.328;2024-02-28T14:26:58;10.00;1.00
47576;DHT22;33304;52.456;13.328;2024-02-28T14:29:25;9.90;1.00
47576;DHT22;33304;52.456;13.328;2024-02-28T14:31:52;10.80;1.00
47576;DHT22;33304;52.456;13.328;2024-02-28T14:34:19;11.90;1.00
47576;DHT22;33304;52.456;13.328;2024-02-28T14:36:47;10.50;1.00
47576;DHT22;33304;52.456;13.328;2024-02-28T14:39:15;10.20;1.00
47576;DHT22;33304;52.456;13.328;2024-02-28T14:41:44;10.50;1.00
47576;DHT22;33304;52.456;13.328;2024-02-28T14:44:12;11.30;1.00
47576;DHT22;33304;52.456;13.328;2024-02-28T14:46:39;11.10;1.00
47576;DHT22;33304;52.456;13.328;2024-02-28T14:49:06;11.70;1.00
47576;DHT22;33304;52.456;13.328;2024-02-28T14:51:34;11.80;1.00
47576;DHT22;33304;52.456;13.328;2024-02-28T14:54:01;11.40;1.00
47576;DHT22;33304;52.456;13.328;2024-02-28T14:56:28;11.60;1.00
47576;DHT22;33304;52.456;13.328;2024-02-28T14:58:56;12.00;1.00
47576;DHT22;33304;52.456;13.328;2024-02-28T15:01:23;12.10;1.00
47576;DHT22;33304;52.456;13.328;2024-02-28T15:03:52;12.50;1.00
47576;DHT22;33304;52.456;13.328;2024-02-28T15:06:19;12.60;1.00
47576;DHT22;33304;52.456;13.328;2024-02-28T15:08:46;12.90;1.00
47576;DHT22;33304;52.456;13.328;2024-02-28T15:11:14;12.90;1.00
47576;DHT22;33304;52.456;13.328;2024-02-28T15:13:42;12.80;1.00
47576;DHT22;33304;52.456;13.328;2024-02-28T15:16:10;12.50;1.00
47576;DHT22;33304;52.456;13.328;2024-02-28T15:18:38;12.80;1.00
47576;DHT22;33304;52.456;13.328;2024-02-28T15:21:06;13.20;1.00
47576;DHT22;33304;52.456;13.328;2024-02-28T15:23:33;13.20;1.00
47576;DHT22;33304;52.456;13.328;2024-02-28T15:26:00;12.80;1.00
47576;DHT22;33304;52.456;13.328;2024-02-28T15:28:28;12.40;1.00
47576;DHT22;33304;52.456;13.328;2024-02-28T15:30:56;12.20;1.00
47576;DHT22;33304;52.456;13.328;2024-02-28T15:33:25;12.10;1.00
47576;DHT22;33304;52.456;13.328;2024-02-28T15:35:52;11.70;1.00